Time;durP1;ratioP1;P1;durP2;ratioP2;P2;SDS_P1;SDS_P2;PMS_P1;PMS_P2;Temp;Humidity;BMP_temperature;BMP_pressure;BME280_temperature;BME280_humidity;BME280_pressure;Samples;Min_cycle;Max_cycle;Signal;HPM_P1;HPM_P2
2021/05/10 00:01:50;;;;;;;1.52;0.93;;;22.70;72.60;;;;;;1823062;77;21461;-72
2021/05/10 00:04:17;;;;;;;6.72;1.30;;;22.60;72.40;;;;;;1822015;77;21127;-72
2021/05/10 00:06:45;;;;;;;12.47;1.25;;;22.60;72.50;;;;;;1819076;77;21198;-71
2021/05/10 00:09:12;;;;;;;3.67;1.12;;;22.60;72.60;;;;;;1818381;77;21179;-72
2021/05/10 00:11:40;;;;;;;4.90;1.12;;;22.60;72.60;;;;;;1846354;71;21124;-68
2021/05/10 00:14:07;;;;;;;6.08;1.47;;;22.60;72.60;;;;;;1882875;74;21461;-69
2021/05/10 00:16:35;;;;;;;4.00;1.00;;;22.60;72.60;;;;;;1875294;74;21163;-70
2021/05/10 00:19:03;;;;;;;8.33;1.22;;;22.60;72.90;;;;;;1875621;74;21112;-70
2021/05/10 00:21:31;;;;;;;7.33;1.17;;;22.60;73.10;;;;;;1876669;74;21169;-70
2021/05/10 00:23:58;;;;;;;5.05;1.10;;;22.70;73.10;;;;;;1879503;74;21099;-68
2021/05/10 00:26:26;;;;;;;6.97;0.90;;;22.70;73.40;;;;;;1879380;74;21061;-70
2021/05/10 00:28:53;;;;;;;6.78;1.30;;;22.60;72.80;;;;;;1878500;74;22161;-70
2021/05/10 00:31:21;;;;;;;3.87;1.07;;;22.60;72.80;;;;;;1878661;74;21122;-69
2021/05/10 00:33:48;;;;;;;5.37;1.30;;;22.60;73.50;;;;;;1874341;74;21125;-69
2021/05/10 00:36:16;;;;;;;3.80;1.30;;;22.60;73.20;;;;;;1881924;74;21484;-70
2021/05/10 00:38:43;;;;;;;6.87;1.40;;;22.60;73.60;;;;;;1883273;74;21113;-70
2021/05/10 00:41:11;;;;;;;3.22;1.05;;;22.60;73.30;;;;;;1877940;75;21106;-69
2021/05/10 00:43:38;;;;;;;3.05;1.10;;;22.60;73.80;;;;;;1880786;74;21662;-69
2021/05/10 00:46:06;;;;;;;5.75;1.32;;;22.60;74.20;;;;;;1876573;74;21136;-69
2021/05/10 00:48:33;;;;;;;4.53;1.15;;;22.60;74.10;;;;;;1873661;74;21093;-69
2021/05/10 00:51:01;;;;;;;3.52;1.12;;;22.60;74.10;;;;;;1874309;74;21590;-69
2021/05/10 00:53:28;;;;;;;5.10;1.22;;;22.60;74.10;;;;;;1876015;74;21020;-68
2021/05/10 00:55:56;;;;;;;3.42;1.20;;;22.60;74.80;;;;;;1880307;74;21102;-69
2021/05/10 00:58:24;;;;;;;5.45;1.15;;;22.60;74.60;;;;;;1878064;74;21090;-69
2021/05/10 01:00:51;;;;;;;3.40;1.10;;;22.60;74.60;;;;;;1878095;74;21678;-68
2021/05/10 01:03:20;;;;;;;2.37;0.95;;;22.60;74.60;;;;;;1873499;74;21113;-69
2021/05/10 01:05:48;;;;;;;5.80;1.07;;;22.60;74.90;;;;;;1874808;74;21089;-69
2021/05/10 01:08:15;;;;;;;7.08;1.30;;;22.50;74.90;;;;;;1873090;75;21524;-69
2021/05/10 01:10:43;;;;;;;4.12;1.10;;;22.60;75.40;;;;;;1877224;74;21078;-70
2021/05/10 01:13:11;;;;;;;5.55;1.10;;;22.60;75.80;;;;;;1877570;74;21195;-70
2021/05/10 01:15:40;;;;;;;5.60;1.10;;;22.50;75.40;;;;;;1875035;74;21082;-70
2021/05/10 01:18:08;;;;;;;8.18;1.40;;;22.50;75.70;;;;;;1879203;74;21082;-69
2021/05/10 01:20:38;;;;;;;5.40;1.12;;;22.50;76.10;;;;;;1875123;75;21101;-70
2021/05/10 01:23:06;;;;;;;5.00;1.10;;;22.50;77.30;;;;;;1877503;74;21653;-69
2021/05/10 01:25:34;;;;;;;2.75;1.12;;;22.40;77.20;;;;;;1881668;74;21093;-70
2021/05/10 01:28:01;;;;;;;6.80;1.12;;;22.40;77.50;;;;;;1874287;75;21096;-70
2021/05/10 01:30:44;;;;;;;4.90;1.07;;;22.30;77.90;;;;;;1876546;74;21051;-69
2021/05/10 01:33:12;;;;;;;5.50;1.00;;;22.20;78.70;;;;;;1869967;74;21026;-69
2021/05/10 01:35:46;;;;;;;2.27;1.40;;;22.20;79.10;;;;;;1878637;74;21523;-69
2021/05/10 01:38:14;;;;;;;3.08;1.10;;;22.20;79.40;;;;;;1873796;75;21505;-68
2021/05/10 01:40:42;;;;;;;5.08;1.45;;;22.10;79.40;;;;;;1878966;74;21058;-70
2021/05/10 01:43:11;;;;;;;4.85;1.10;;;22.00;79.50;;;;;;1874323;74;21039;-69
2021/05/10 01:45:39;;;;;;;5.55;1.10;;;22.00;79.60;;;;;;1866759;75;21147;-69
2021/05/10 01:48:09;;;;;;;5.22;1.12;;;21.90;80.00;;;;;;1880433;74;21073;-69
2021/05/10 01:50:38;;;;;;;3.67;1.20;;;21.90;80.10;;;;;;1876953;74;21065;-70
2021/05/10 01:53:06;;;;;;;5.00;1.20;;;22.00;80.20;;;;;;1883202;74;21532;-70
2021/05/10 01:55:35;;;;;;;8.10;1.27;;;21.90;80.10;;;;;;1880164;74;21090;-68
2021/05/10 01:58:04;;;;;;;4.25;1.20;;;21.90;80.50;;;;;;1874495;75;21066;-70
2021/05/10 02:00:40;;;;;;;8.60;1.55;;;21.90;80.70;;;;;;1876291;74;21539;-68
2021/05/10 02:03:12;;;;;;;6.62;1.40;;;21.80;80.80;;;;;;1878585;74;21160;-70
2021/05/10 02:05:41;;;;;;;8.30;1.30;;;21.80;80.80;;;;;;1877957;74;21101;-69
2021/05/10 02:08:10;;;;;;;9.05;1.80;;;21.80;81.20;;;;;;1879164;74;21077;-70
2021/05/10 02:10:41;;;;;;;3.40;1.20;;;21.80;82.30;;;;;;1873335;74;21556;-69
2021/05/10 02:13:10;;;;;;;2.70;1.10;;;21.70;81.60;;;;;;1881945;74;21148;-70
2021/05/10 02:15:46;;;;;;;3.77;1.17;;;21.80;82.70;;;;;;1875329;75;21098;-69
2021/05/10 02:18:14;;;;;;;2.62;1.20;;;21.70;85.00;;;;;;1875789;74;21623;-69
2021/05/10 02:20:42;;;;;;;7.78;1.87;;;21.60;84.70;;;;;;1879220;74;21093;-70
2021/05/10 02:23:12;;;;;;;7.62;1.27;;;21.50;85.50;;;;;;1879786;74;21101;-70
2021/05/10 02:25:42;;;;;;;4.92;1.27;;;21.40;86.30;;;;;;1879918;74;21018;-70
2021/05/10 02:28:11;;;;;;;3.20;1.20;;;21.40;84.10;;;;;;1872460;75;21218;-70
2021/05/10 02:30:40;;;;;;;2.90;1.20;;;21.40;83.80;;;;;;1873307;74;21101;-68
2021/05/10 02:33:11;;;;;;;3.92;1.20;;;21.40;83.70;;;;;;1885040;74;21206;-69
2021/05/10 02:35:39;;;;;;;3.00;1.30;;;21.40;84.80;;;;;;1873152;74;21109;-70
2021/05/10 02:38:07;;;;;;;4.45;1.55;;;21.40;88.60;;;;;;1875056;74;21093;-70
2021/05/10 02:40:35;;;;;;;3.75;1.20;;;21.30;90.50;;;;;;1877398;74;21152;-68
2021/05/10 02:43:03;;;;;;;2.47;1.20;;;21.10;89.40;;;;;;1879807;74;21104;-69
2021/05/10 02:45:31;;;;;;;5.90;1.62;;;21.10;86.10;;;;;;1881110;74;21101;-67
2021/05/10 02:47:59;;;;;;;4.25;1.20;;;21.10;85.80;;;;;;1875122;74;21164;-69
2021/05/10 02:50:28;;;;;;;5.30;1.40;;;21.10;85.90;;;;;;1872846;75;21110;-69
2021/05/10 02:52:56;;;;;;;4.20;1.70;;;21.10;85.70;;;;;;1875460;74;21120;-69
2021/05/10 02:55:24;;;;;;;9.58;1.50;;;21.10;85.70;;;;;;1875272;74;21109;-70
2021/05/10 02:57:54;;;;;;;3.37;1.25;;;21.00;85.60;;;;;;1874412;74;21093;-69
2021/05/10 03:00:23;;;;;;;5.42;1.40;;;21.00;85.90;;;;;;1877143;74;21054;-69
2021/05/10 03:02:52;;;;;;;6.65;1.52;;;21.00;86.20;;;;;;1871262;74;21062;-69
2021/05/10 03:05:20;;;;;;;4.42;1.30;;;21.00;86.40;;;;;;1876023;74;21671;-68
2021/05/10 03:07:47;;;;;;;1.70;1.00;;;21.00;89.50;;;;;;1875509;74;21100;-68
2021/05/10 03:10:18;;;;;;;8.88;1.57;;;20.90;87.40;;;;;;1874203;74;21010;-70
2021/05/10 03:12:46;;;;;;;4.75;1.27;;;20.90;87.40;;;;;;1877944;75;21057;-68
2021/05/10 03:15:16;;;;;;;6.97;1.20;;;20.90;87.20;;;;;;1878875;74;21500;-69
2021/05/10 03:17:44;;;;;;;4.90;1.32;;;20.90;87.70;;;;;;1872957;74;21530;-69
2021/05/10 03:20:19;;;;;;;3.90;1.20;;;20.80;88.30;;;;;;1878840;74;21081;-69
2021/05/10 03:22:50;;;;;;;6.65;1.62;;;20.80;88.10;;;;;;1872131;74;21058;-69
2021/05/10 03:25:16;;;;;;;4.08;1.20;;;20.80;87.90;;;;;;1873931;75;21041;-69
2021/05/10 03:27:44;;;;;;;3.42;1.60;;;20.70;88.00;;;;;;1874758;74;21567;-69
2021/05/10 03:30:13;;;;;;;7.12;1.30;;;20.80;88.60;;;;;;1876721;74;21528;-68
2021/05/10 03:32:42;;;;;;;5.58;1.62;;;20.80;88.20;;;;;;1873563;74;21098;-69
2021/05/10 03:35:11;;;;;;;3.22;1.25;;;20.70;87.90;;;;;;1877600;74;21089;-69
2021/05/10 03:37:39;;;;;;;4.47;1.40;;;20.80;87.80;;;;;;1871909;75;21153;-69
2021/05/10 03:40:09;;;;;;;5.92;1.35;;;20.70;88.10;;;;;;1876739;74;21147;-68
2021/05/10 03:42:38;;;;;;;4.53;1.50;;;20.70;89.70;;;;;;1873978;75;21058;-68
2021/05/10 03:45:07;;;;;;;4.03;1.67;;;20.70;88.30;;;;;;1883392;74;21143;-70
2021/05/10 03:47:41;;;;;;;10.48;1.50;;;20.70;88.00;;;;;;1875794;74;21113;-69
2021/05/10 03:50:11;;;;;;;6.67;1.10;;;20.70;88.30;;;;;;1872642;74;21063;-69
2021/05/10 03:52:39;;;;;;;5.00;1.32;;;20.70;88.00;;;;;;1877658;74;21250;-69
2021/05/10 03:55:11;;;;;;;5.60;1.72;;;20.70;88.30;;;;;;1881563;74;21645;-69
2021/05/10 03:57:39;;;;;;;4.55;1.50;;;20.70;89.00;;;;;;1875807;75;21062;-69
2021/05/10 04:00:08;;;;;;;3.15;1.32;;;20.70;88.50;;;;;;1882323;74;21159;-69
2021/05/10 04:02:36;;;;;;;3.92;1.20;;;20.70;88.00;;;;;;1871620;75;21568;-69
2021/05/10 04:15:56;;;;;;;5.30;1.42;;;20.80;88.20;;;;;;1833563;76;21109;-68
2021/05/10 04:18:24;;;;;;;2.85;1.32;;;20.70;87.90;;;;;;1835359;76;21482;-68
2021/05/10 04:20:51;;;;;;;4.85;1.60;;;20.80;87.90;;;;;;1837432;76;21588;-69
2021/05/10 04:23:22;;;;;;;4.75;1.45;;;20.80;87.60;;;;;;1836567;76;21624;-68
2021/05/10 04:25:51;;;;;;;7.67;1.40;;;20.80;87.30;;;;;;1837283;76;21016;-70
2021/05/10 04:28:20;;;;;;;4.37;1.37;;;20.80;87.70;;;;;;1835000;76;21083;-69
2021/05/10 04:30:49;;;;;;;7.75;1.52;;;20.80;87.00;;;;;;1836627;76;21789;-69
2021/05/10 04:33:18;;;;;;;8.58;1.80;;;20.80;87.80;;;;;;1844402;76;21112;-69
2021/05/10 04:35:46;;;;;;;4.40;1.40;;;20.80;87.00;;;;;;1838249;76;21080;-68
2021/05/10 04:38:13;;;;;;;10.53;1.37;;;20.90;86.80;;;;;;1838346;76;21093;-70
2021/05/10 04:40:41;;;;;;;4.80;1.37;;;20.90;86.80;;;;;;1837815;76;22116;-69
2021/05/10 04:43:08;;;;;;;4.47;1.50;;;20.80;86.80;;;;;;1835210;76;21088;-71
2021/05/10 04:45:36;;;;;;;3.95;1.67;;;20.90;86.90;;;;;;1838643;76;21084;-69
2021/05/10 04:48:05;;;;;;;6.83;1.50;;;20.90;86.70;;;;;;1835996;76;21067;-70
2021/05/10 04:50:33;;;;;;;5.87;1.50;;;21.00;85.70;;;;;;1872896;74;21214;-69
2021/05/10 04:53:00;;;;;;;5.80;1.65;;;21.10;85.60;;;;;;1884512;74;21604;-71
2021/05/10 04:55:28;;;;;;;3.47;1.60;;;21.20;85.50;;;;;;1876122;74;22145;-69
2021/05/10 04:57:56;;;;;;;5.60;1.77;;;21.20;85.30;;;;;;1877035;74;21587;-70
2021/05/10 05:00:23;;;;;;;3.25;1.62;;;21.30;85.50;;;;;;1884311;74;22141;-68
2021/05/10 05:02:51;;;;;;;6.03;1.87;;;21.40;85.20;;;;;;1876889;74;21108;-70
2021/05/10 05:05:18;;;;;;;7.22;1.62;;;21.40;85.30;;;;;;1873068;74;21187;-69
2021/05/10 05:07:45;;;;;;;10.08;1.77;;;21.40;85.10;;;;;;1877200;74;21136;-71
2021/05/10 05:10:14;;;;;;;2.87;1.42;;;21.50;84.00;;;;;;1877804;75;21183;-71
2021/05/10 05:12:42;;;;;;;8.33;1.50;;;21.50;84.90;;;;;;1874313;74;21608;-71
2021/05/10 05:15:10;;;;;;;6.67;1.90;;;21.60;84.10;;;;;;1876215;74;21142;-71
2021/05/10 05:17:39;;;;;;;6.85;1.35;;;21.60;83.60;;;;;;1873857;74;21168;-70
2021/05/10 05:20:07;;;;;;;6.67;1.50;;;21.60;84.10;;;;;;1880053;74;21171;-71
2021/05/10 05:22:36;;;;;;;2.60;1.30;;;21.60;84.10;;;;;;1883252;74;21161;-70
2021/05/10 05:25:05;;;;;;;8.58;1.62;;;21.60;83.50;;;;;;1878142;74;21046;-71
2021/05/10 05:27:33;;;;;;;4.72;1.75;;;21.60;83.70;;;;;;1875742;74;21113;-72
2021/05/10 05:30:00;;;;;;;5.08;1.22;;;21.70;83.70;;;;;;1883181;74;21701;-70
2021/05/10 05:32:30;;;;;;;6.53;1.20;;;21.80;83.60;;;;;;1880956;73;21148;-69
2021/05/10 05:34:57;;;;;;;7.37;1.72;;;21.80;84.30;;;;;;1872386;74;21773;-70
2021/05/10 05:37:25;;;;;;;10.82;1.60;;;21.80;83.80;;;;;;1873089;74;21085;-70
2021/05/10 05:39:53;;;;;;;3.40;1.47;;;21.70;84.40;;;;;;1878684;74;21098;-68
2021/05/10 05:42:21;;;;;;;6.80;1.67;;;21.70;85.00;;;;;;1878811;74;21133;-69
2021/05/10 05:44:51;;;;;;;3.20;1.47;;;21.80;84.90;;;;;;1876915;74;21555;-69
2021/05/10 05:47:28;;;;;;;6.53;1.55;;;21.80;85.00;;;;;;1875424;74;21110;-71
2021/05/10 05:49:56;;;;;;;4.35;1.25;;;21.80;85.20;;;;;;1874943;74;21198;-72
2021/05/10 05:52:24;;;;;;;11.50;1.65;;;21.70;85.50;;;;;;1871111;74;21137;-72
2021/05/10 05:54:53;;;;;;;8.65;1.50;;;21.70;85.50;;;;;;1879489;75;21741;-71
2021/05/10 05:57:21;;;;;;;5.17;1.67;;;21.70;85.30;;;;;;1883131;74;21745;-72
2021/05/10 05:59:48;;;;;;;7.40;1.77;;;21.60;85.90;;;;;;1884497;74;21133;-72
2021/05/10 06:02:16;;;;;;;4.92;1.40;;;21.60;86.50;;;;;;1880390;74;21195;-72
2021/05/10 06:04:44;;;;;;;5.97;1.67;;;21.50;85.90;;;;;;1880905;74;21624;-72
2021/05/10 06:07:11;;;;;;;5.17;1.47;;;21.60;86.40;;;;;;1873837;74;21012;-75
2021/05/10 06:09:38;;;;;;;10.45;1.62;;;21.60;86.30;;;;;;1879856;74;21106;-72
2021/05/10 06:12:06;;;;;;;5.17;1.50;;;21.60;86.30;;;;;;1878320;74;21650;-72
2021/05/10 06:14:34;;;;;;;5.65;1.42;;;21.70;87.00;;;;;;1878814;74;21419;-72
2021/05/10 06:17:01;;;;;;;10.50;1.72;;;21.70;86.80;;;;;;1879159;74;21047;-72
2021/05/10 06:19:29;;;;;;;5.10;1.60;;;21.80;86.70;;;;;;1878972;74;21484;-72
2021/05/10 06:21:56;;;;;;;8.10;1.70;;;21.80;86.90;;;;;;1875953;75;21649;-73
2021/05/10 06:24:24;;;;;;;5.78;1.40;;;21.90;87.70;;;;;;1882513;74;22173;-72
2021/05/10 06:26:52;;;;;;;2.92;1.57;;;22.00;87.80;;;;;;1889299;74;21687;-73
2021/05/10 06:29:19;;;;;;;4.33;1.47;;;22.00;87.10;;;;;;1886192;74;21542;-72
2021/05/10 06:31:47;;;;;;;4.30;1.15;;;22.00;86.70;;;;;;1876688;74;21161;-73
2021/05/10 06:34:14;;;;;;;4.67;1.60;;;22.00;85.90;;;;;;1877577;74;21101;-73
2021/05/10 06:36:42;;;;;;;5.37;1.72;;;22.10;87.70;;;;;;1887704;74;21066;-72
2021/05/10 06:39:09;;;;;;;5.55;1.57;;;22.10;87.30;;;;;;1875927;74;21097;-73
2021/05/10 06:41:37;;;;;;;6.80;1.65;;;22.20;87.10;;;;;;1875637;75;21117;-72
2021/05/10 06:44:04;;;;;;;12.95;1.80;;;22.30;86.50;;;;;;1875521;74;21101;-71
2021/05/10 06:46:32;;;;;;;5.90;1.82;;;22.40;87.40;;;;;;1874125;74;21081;-73
2021/05/10 06:48:59;;;;;;;3.33;1.50;;;22.40;86.70;;;;;;1875497;74;21101;-72
2021/05/10 06:51:27;;;;;;;4.42;1.27;;;22.40;86.30;;;;;;1878909;75;21207;-72
2021/05/10 06:53:54;;;;;;;6.92;1.45;;;22.40;85.60;;;;;;1875613;75;21112;-72
2021/05/10 06:56:23;;;;;;;6.15;1.30;;;22.40;85.80;;;;;;1882902;74;21077;-73
2021/05/10 06:58:51;;;;;;;6.05;1.35;;;22.40;85.40;;;;;;1875693;74;21074;-72
2021/05/10 07:01:18;;;;;;;5.90;1.50;;;22.40;86.40;;;;;;1883631;74;21070;-73
2021/05/10 07:03:46;;;;;;;3.37;1.50;;;22.40;86.20;;;;;;1884696;74;21481;-73
2021/05/10 07:06:13;;;;;;;7.15;1.72;;;22.40;87.20;;;;;;1889037;74;21047;-73
2021/05/10 07:08:41;;;;;;;6.50;1.60;;;22.40;86.80;;;;;;1879000;74;21109;-72
2021/05/10 07:11:08;;;;;;;12.98;1.90;;;22.50;87.30;;;;;;1883730;74;21062;-72
2021/05/10 07:13:36;;;;;;;6.12;1.82;;;22.50;87.20;;;;;;1884504;74;21046;-73
2021/05/10 07:16:04;;;;;;;10.08;1.72;;;22.60;87.40;;;;;;1883995;74;21524;-72
2021/05/10 07:18:31;;;;;;;8.53;1.70;;;22.70;87.70;;;;;;1885853;74;21027;-73
2021/05/10 07:20:58;;;;;;;11.00;1.80;;;22.70;87.30;;;;;;1886138;74;21067;-72
2021/05/10 07:23:26;;;;;;;5.85;1.92;;;22.70;87.80;;;;;;1880532;75;21559;-72
2021/05/10 07:25:54;;;;;;;6.30;2.00;;;22.70;88.10;;;;;;1878494;74;21182;-71
2021/05/10 07:28:21;;;;;;;8.10;1.62;;;22.80;88.70;;;;;;1885693;74;21011;-72
2021/05/10 07:30:49;;;;;;;21.42;1.90;;;22.90;87.80;;;;;;1888806;74;21525;-72
2021/05/10 07:33:17;;;;;;;16.07;1.87;;;23.00;86.70;;;;;;1882280;74;21033;-72
2021/05/10 07:35:44;;;;;;;4.83;1.40;;;23.10;86.90;;;;;;1879049;74;21159;-72
2021/05/10 07:38:12;;;;;;;4.75;1.30;;;23.30;86.00;;;;;;1882370;74;21027;-71
2021/05/10 07:40:40;;;;;;;8.13;1.37;;;23.40;83.40;;;;;;1874042;75;21066;-72
2021/05/10 07:43:07;;;;;;;3.40;1.32;;;23.50;83.60;;;;;;1884030;74;21101;-71
2021/05/10 07:45:36;;;;;;;5.70;1.70;;;23.60;84.20;;;;;;1882454;74;21137;-72
2021/05/10 07:48:03;;;;;;;5.22;1.40;;;23.70;82.40;;;;;;1879666;74;21646;-71
2021/05/10 07:50:31;;;;;;;6.28;1.30;;;23.70;82.40;;;;;;1878081;74;21074;-72
2021/05/10 07:52:59;;;;;;;3.80;1.37;;;23.70;82.60;;;;;;1877153;75;21112;-72
2021/05/10 07:55:27;;;;;;;3.50;1.45;;;23.70;82.30;;;;;;1877893;74;21057;-73
2021/05/10 07:57:55;;;;;;;4.60;1.67;;;23.60;82.40;;;;;;1874626;74;21678;-72
2021/05/10 08:00:30;;;;;;;6.42;1.50;;;23.60;82.80;;;;;;1878306;74;21198;-72
2021/05/10 08:03:05;;;;;;;5.50;1.40;;;23.70;82.90;;;;;;1871832;74;21297;-72
2021/05/10 08:05:26;;;;;;;6.25;1.60;;;23.70;82.30;;;;;;1879309;75;21728;-73
2021/05/10 08:07:55;;;;;;;4.42;1.52;;;23.60;81.90;;;;;;1877222;74;21618;-72
2021/05/10 08:10:23;;;;;;;10.13;1.47;;;23.60;81.90;;;;;;1885693;74;21054;-73
2021/05/10 08:12:50;;;;;;;19.62;1.60;;;23.50;81.80;;;;;;1882602;74;21239;-72
2021/05/10 08:15:18;;;;;;;4.55;1.57;;;23.40;81.90;;;;;;1872443;74;21085;-72
2021/05/10 08:17:46;;;;;;;5.15;1.30;;;23.50;83.00;;;;;;1875724;74;21113;-72
2021/05/10 08:20:14;;;;;;;6.28;1.42;;;23.50;82.10;;;;;;1883536;74;21599;-72
2021/05/10 08:22:42;;;;;;;7.92;1.30;;;23.50;82.90;;;;;;1882181;75;21126;-72
2021/05/10 08:25:12;;;;;;;6.00;1.50;;;23.50;82.40;;;;;;1878038;74;21595;-73
2021/05/10 08:27:40;;;;;;;2.80;1.30;;;23.50;83.00;;;;;;1876123;74;21061;-73
2021/05/10 08:30:11;;;;;;;6.22;1.35;;;23.60;83.30;;;;;;1881939;74;21103;-73
2021/05/10 08:32:40;;;;;;;6.30;1.37;;;23.80;82.90;;;;;;1878787;74;21102;-73
2021/05/10 08:35:09;;;;;;;7.53;1.27;;;23.70;82.80;;;;;;1875862;74;21049;-73
2021/05/10 08:37:37;;;;;;;5.70;1.52;;;23.80;83.50;;;;;;1884478;74;21105;-73
2021/05/10 08:40:06;;;;;;;11.12;1.30;;;23.80;83.00;;;;;;1877056;75;21623;-73
2021/05/10 08:42:34;;;;;;;9.50;2.15;;;23.80;82.50;;;;;;1876605;74;21054;-74
2021/05/10 08:45:02;;;;;;;2.37;1.20;;;23.90;83.40;;;;;;1882196;74;21250;-73
2021/05/10 08:47:33;;;;;;;4.20;1.32;;;24.00;84.20;;;;;;1881015;74;21038;-72
2021/05/10 08:50:03;;;;;;;2.72;1.05;;;24.10;85.00;;;;;;1875116;74;21384;-71
2021/05/10 08:55:36;;;;;;;5.90;1.52;;;24.20;82.90;;;;;;1857316;74;21130;-72
2021/05/10 08:58:04;;;;;;;8.18;1.52;;;24.10;83.40;;;;;;1879090;74;21085;-72
2021/05/10 09:00:31;;;;;;;8.03;1.60;;;24.00;82.70;;;;;;1875301;74;21117;-72
2021/05/10 09:03:11;;;;;;;4.17;1.20;;;23.80;83.50;;;;;;1882746;74;21398;-72
2021/05/10 09:05:54;;;;;;;7.67;1.50;;;23.80;85.40;;;;;;1876007;74;21199;-71
2021/05/10 09:08:21;;;;;;;7.15;1.57;;;23.80;83.40;;;;;;1872667;74;21199;-71
2021/05/10 09:11:06;;;;;;;5.45;1.37;;;23.80;83.80;;;;;;1882416;74;21159;-72
2021/05/10 09:13:39;;;;;;;2.70;1.20;;;23.80;84.60;;;;;;1881773;74;21118;-72
2021/05/10 09:16:07;;;;;;;8.45;1.35;;;23.80;85.30;;;;;;1875028;74;21058;-72
2021/05/10 09:18:36;;;;;;;7.33;1.80;;;23.70;85.20;;;;;;1880194;74;21131;-72
2021/05/10 09:21:15;;;;;;;7.20;1.47;;;23.70;84.50;;;;;;1882271;74;21114;-72
2021/05/10 09:23:42;;;;;;;4.47;1.60;;;23.90;85.10;;;;;;1877443;75;21074;-72
2021/05/10 09:26:13;;;;;;;8.20;1.35;;;23.90;84.80;;;;;;1879450;74;21163;-73
2021/05/10 09:28:42;;;;;;;6.35;1.80;;;24.10;84.30;;;;;;1874865;75;21135;-72
2021/05/10 09:31:12;;;;;;;5.67;1.37;;;24.20;83.30;;;;;;1880853;74;21670;-72
2021/05/10 09:33:48;;;;;;;4.92;1.35;;;24.20;83.20;;;;;;1889827;74;21601;-71
2021/05/10 09:36:36;;;;;;;7.90;1.57;;;24.40;84.60;;;;;;1878385;74;21136;-71
2021/05/10 09:39:06;;;;;;;3.33;1.52;;;24.40;83.90;;;;;;1879016;74;21035;-72
2021/05/10 09:41:34;;;;;;;3.77;1.45;;;24.50;83.20;;;;;;1875994;74;21112;-71
2021/05/10 09:44:07;;;;;;;5.42;1.52;;;24.50;83.30;;;;;;1876911;74;21053;-70
2021/05/10 09:46:44;;;;;;;4.05;1.52;;;24.40;83.50;;;;;;1887986;74;21108;-70
2021/05/10 09:49:12;;;;;;;3.87;1.57;;;24.40;83.80;;;;;;1881455;74;21039;-71
2021/05/10 09:51:40;;;;;;;2.08;1.00;;;24.40;83.80;;;;;;1881423;74;21540;-72
2021/05/10 09:54:13;;;;;;;9.85;1.50;;;24.50;83.60;;;;;;1883095;74;21039;-71
2021/05/10 09:56:41;;;;;;;5.25;1.45;;;24.60;83.10;;;;;;1877269;74;21007;-71
2021/05/10 09:59:14;;;;;;;6.45;1.55;;;24.50;83.30;;;;;;1878360;74;21484;-71
2021/05/10 10:01:47;;;;;;;4.30;1.37;;;24.60;83.60;;;;;;1880732;74;21034;-71
2021/05/10 10:04:17;;;;;;;5.37;1.60;;;24.70;82.20;;;;;;1880544;74;20995;-71
2021/05/10 10:06:48;;;;;;;6.28;1.75;;;24.60;82.80;;;;;;1882942;74;21492;-70
2021/05/10 10:09:16;;;;;;;5.73;1.33;;;24.70;81.60;;;;;;1877554;75;21049;-70
2021/05/10 10:11:44;;;;;;;11.90;2.33;;;24.80;81.80;;;;;;1882606;74;21402;-70
2021/05/10 10:14:13;;;;;;;6.25;1.37;;;24.90;82.30;;;;;;1877378;74;21657;-70
2021/05/10 10:16:41;;;;;;;3.62;1.40;;;25.10;80.90;;;;;;1885206;74;21187;-70
2021/05/10 10:19:08;;;;;;;8.58;1.30;;;25.10;80.00;;;;;;1873706;74;21160;-69
2021/05/10 10:21:39;;;;;;;7.03;1.30;;;25.20;80.70;;;;;;1880941;74;21416;-69
2021/05/10 10:24:09;;;;;;;7.58;1.40;;;25.40;80.30;;;;;;1878244;74;21660;-70
2021/05/10 10:26:39;;;;;;;7.67;1.30;;;25.50;80.10;;;;;;1878069;74;21149;-70
2021/05/10 10:29:09;;;;;;;4.97;1.32;;;25.70;80.10;;;;;;1878359;74;21551;-69
2021/05/10 10:31:45;;;;;;;7.92;1.47;;;25.80;79.50;;;;;;1876955;74;21228;-69
2021/05/10 10:34:19;;;;;;;10.20;1.30;;;25.90;80.00;;;;;;1875529;74;21085;-70
2021/05/10 10:36:50;;;;;;;6.45;1.55;;;26.10;79.60;;;;;;1877548;74;21535;-70
2021/05/10 10:39:23;;;;;;;5.80;1.30;;;26.40;78.70;;;;;;1876159;74;21027;-69
2021/05/10 10:42:12;;;;;;;7.75;1.20;;;26.70;78.00;;;;;;1881619;74;21133;-70
2021/05/10 10:44:54;;;;;;;5.97;1.02;;;26.80;75.90;;;;;;1877238;74;21066;-69
2021/05/10 10:47:45;;;;;;;8.05;1.15;;;26.80;76.50;;;;;;1878283;74;21045;-69
2021/05/10 10:50:21;;;;;;;10.10;1.10;;;27.00;74.70;;;;;;1883982;74;22245;-69
2021/05/10 10:52:57;;;;;;;6.10;1.12;;;27.10;73.70;;;;;;1879990;75;21197;-70
2021/05/10 10:55:38;;;;;;;9.73;1.27;;;27.20;74.00;;;;;;1875275;75;21122;-69
2021/05/10 10:58:21;;;;;;;5.83;1.05;;;27.60;73.30;;;;;;1872982;74;21187;-69
2021/05/10 11:01:24;;;;;;;9.45;1.27;;;27.80;73.10;;;;;;1864311;75;21059;-71
2021/05/10 11:03:45;;;;;;;6.62;1.10;;;28.00;73.70;;;;;;1871803;74;22165;-71
2021/05/10 11:06:13;;;;;;;4.47;1.12;;;27.60;73.90;;;;;;1876304;74;21429;-70
2021/05/10 11:08:52;;;;;;;5.72;1.17;;;27.60;74.80;;;;;;1877127;75;21270;-70
2021/05/10 11:11:34;;;;;;;5.65;0.95;;;27.80;74.60;;;;;;1881714;74;22710;-70
2021/05/10 11:13:59;;;;;;;4.25;1.05;;;27.60;72.60;;;;;;1872750;74;21066;-72
2021/05/10 11:16:45;;;;;;;5.30;1.17;;;27.70;73.10;;;;;;1875674;74;21167;-71
2021/05/10 11:19:35;;;;;;;7.65;1.07;;;28.10;71.80;;;;;;1857117;74;21222;-71
2021/05/10 11:22:22;;;;;;;5.85;1.52;;;28.60;71.80;;;;;;1878886;74;21502;-71
2021/05/10 11:24:50;;;;;;;8.13;1.32;;;28.50;70.90;;;;;;1878887;74;21208;-71
2021/05/10 11:27:31;;;;;;;7.60;1.10;;;27.90;70.20;;;;;;1880293;74;21649;-71
2021/05/10 11:29:59;;;;;;;2.47;0.80;;;27.20;72.00;;;;;;1879014;74;21161;-72
2021/05/10 11:32:30;;;;;;;5.05;1.10;;;26.60;72.40;;;;;;1882253;74;21192;-71
2021/05/10 11:34:59;;;;;;;16.50;1.70;;;26.10;78.60;;;;;;1879552;74;21157;-70
2021/05/10 11:37:28;;;;;;;14.07;1.82;;;25.90;80.70;;;;;;1873262;74;21141;-70
2021/05/10 11:39:57;;;;;;;11.75;1.65;;;25.60;80.70;;;;;;1877913;74;21113;-70
2021/05/10 11:42:29;;;;;;;18.27;1.98;;;25.40;81.90;;;;;;1874054;74;21102;-69
2021/05/10 11:45:00;;;;;;;37.35;4.45;;;25.20;82.30;;;;;;1882167;74;21109;-70
2021/05/10 11:47:27;;;;;;;27.98;3.08;;;25.20;83.60;;;;;;1879373;74;21579;-70
2021/05/10 11:49:55;;;;;;;36.77;4.83;;;25.80;82.20;;;;;;1881854;74;21569;-70
2021/05/10 11:52:25;;;;;;;19.32;2.20;;;25.80;82.10;;;;;;1876116;74;21709;-70
2021/05/10 11:54:55;;;;;;;12.55;1.40;;;25.90;83.00;;;;;;1872720;74;21121;-71
2021/05/10 11:57:28;;;;;;;7.60;1.20;;;25.90;82.70;;;;;;1877966;75;21447;-69
2021/05/10 12:00:10;;;;;;;7.30;1.20;;;25.90;82.00;;;;;;1883273;74;21151;-71
2021/05/10 12:02:32;;;;;;;8.20;1.32;;;26.10;82.50;;;;;;1872945;74;21583;-71
2021/05/10 12:05:03;;;;;;;9.75;1.50;;;26.10;80.80;;;;;;1880357;74;21086;-71
2021/05/10 12:07:32;;;;;;;8.20;1.20;;;25.90;81.90;;;;;;1876982;74;21618;-70
2021/05/10 12:10:07;;;;;;;7.20;1.32;;;25.70;82.00;;;;;;1879466;74;21122;-71
2021/05/10 12:12:48;;;;;;;7.08;1.02;;;25.50;83.00;;;;;;1893805;72;21135;-74
2021/05/10 12:15:24;;;;;;;7.95;1.47;;;25.30;82.30;;;;;;1907002;74;21181;-74
2021/05/10 12:17:54;;;;;;;13.40;1.10;;;25.30;81.90;;;;;;1907192;74;21084;-75
2021/05/10 12:20:23;;;;;;;6.10;1.20;;;25.30;80.70;;;;;;1905645;74;21126;-75
2021/05/10 12:22:52;;;;;;;2.50;1.05;;;25.10;81.40;;;;;;1908111;73;21072;-75
2021/05/10 12:25:29;;;;;;;12.35;1.30;;;24.90;82.10;;;;;;1907446;73;21048;-75
2021/05/10 12:28:15;;;;;;;6.30;1.10;;;24.80;83.50;;;;;;1911586;74;21001;-74
2021/05/10 12:30:49;;;;;;;10.65;1.10;;;24.90;83.50;;;;;;1911340;74;21056;-72
2021/05/10 12:33:19;;;;;;;10.48;1.25;;;25.10;83.20;;;;;;1911653;73;21535;-75
2021/05/10 12:35:55;;;;;;;6.15;1.10;;;25.10;83.60;;;;;;1905183;73;21089;-73
2021/05/10 12:38:27;;;;;;;4.78;1.00;;;25.10;83.50;;;;;;1909302;73;21173;-76
2021/05/10 12:40:55;;;;;;;5.08;0.95;;;24.90;83.00;;;;;;1909994;74;21097;-73
2021/05/10 12:43:24;;;;;;;12.33;1.47;;;24.70;83.10;;;;;;1909742;74;21645;-75
2021/05/10 12:46:02;;;;;;;10.18;1.02;;;24.70;84.00;;;;;;1905902;73;21037;-75
2021/05/10 12:48:49;;;;;;;10.60;0.90;;;24.70;82.90;;;;;;1913997;74;21023;-74
2021/05/10 12:51:21;;;;;;;5.75;0.95;;;24.70;81.80;;;;;;1907026;73;21858;-74
2021/05/10 12:53:55;;;;;;;13.80;1.35;;;24.50;81.80;;;;;;1909805;73;21033;-75
2021/05/10 12:56:25;;;;;;;8.20;1.27;;;24.40;82.50;;;;;;1906640;74;21181;-75
2021/05/10 12:58:54;;;;;;;6.70;0.80;;;24.30;82.40;;;;;;1905684;73;21091;-75
2021/05/10 13:01:26;;;;;;;8.15;0.88;;;24.10;81.60;;;;;;1910949;73;21139;-75
2021/05/10 13:04:06;;;;;;;7.47;1.00;;;24.10;83.00;;;;;;1907006;73;21185;-74
2021/05/10 13:06:36;;;;;;;5.55;0.80;;;24.00;83.70;;;;;;1908110;73;21163;-75
2021/05/10 13:09:06;;;;;;;1.22;0.42;;;23.90;83.00;;;;;;1908964;74;21565;-75
2021/05/10 13:11:37;;;;;;;7.62;0.72;;;23.80;81.10;;;;;;1907225;74;21776;-74
2021/05/10 13:14:09;;;;;;;8.48;0.70;;;23.70;81.30;;;;;;1905351;73;21116;-75